sensor_id;sensor_type;location;lat;lon;timestamp;P1;durP1;ratioP1;P2;durP2;ratioP2
60314;SDS011;46159;42.550;21.904;2024-01-06T00:01:50;37.83;;;24.95;;
60314;SDS011;46159;42.550;21.904;2024-01-06T00:04:16;41.30;;;27.08;;
60314;SDS011;46159;42.550;21.904;2024-01-06T00:06:42;40.30;;;26.27;;
60314;SDS011;46159;42.550;21.904;2024-01-06T00:09:08;40.38;;;26.25;;
60314;SDS011;46159;42.550;21.904;2024-01-06T00:11:34;34.60;;;21.20;;
60314;SDS011;46159;42.550;21.904;2024-01-06T00:14:00;27.42;;;17.35;;
60314;SDS011;46159;42.550;21.904;2024-01-06T00:16:26;30.05;;;18.35;;
60314;SDS011;46159;42.550;21.904;2024-01-06T00:18:52;30.25;;;16.95;;
60314;SDS011;46159;42.550;21.904;2024-01-06T00:21:18;28.92;;;16.77;;
60314;SDS011;46159;42.550;21.904;2024-01-06T00:23:44;31.92;;;16.77;;
60314;SDS011;46159;42.550;21.904;2024-01-06T00:26:10;40.88;;;24.60;;
60314;SDS011;46159;42.550;21.904;2024-01-06T00:28:37;37.10;;;21.23;;
60314;SDS011;46159;42.550;21.904;2024-01-06T00:31:04;45.03;;;26.45;;
60314;SDS011;46159;42.550;21.904;2024-01-06T00:33:31;45.08;;;23.40;;
60314;SDS011;46159;42.550;21.904;2024-01-06T00:35:57;33.10;;;19.50;;
60314;SDS011;46159;42.550;21.904;2024-01-06T00:38:23;63.65;;;34.85;;
60314;SDS011;46159;42.550;21.904;2024-01-06T00:40:49;61.55;;;37.80;;
60314;SDS011;46159;42.550;21.904;2024-01-06T00:43:15;57.88;;;35.47;;
60314;SDS011;46159;42.550;21.904;2024-01-06T00:45:41;81.90;;;49.67;;
60314;SDS011;46159;42.550;21.904;2024-01-06T00:48:07;98.68;;;59.20;;
60314;SDS011;46159;42.550;21.904;2024-01-06T00:50:33;95.93;;;56.42;;
60314;SDS011;46159;42.550;21.904;2024-01-06T00:52:59;85.97;;;54.47;;
60314;SDS011;46159;42.550;21.904;2024-01-06T00:55:25;84.78;;;52.50;;
60314;SDS011;46159;42.550;21.904;2024-01-06T00:57:51;81.43;;;51.30;;
60314;SDS011;46159;42.550;21.904;2024-01-06T01:00:18;94.90;;;55.15;;
60314;SDS011;46159;42.550;21.904;2024-01-06T01:02:44;97.75;;;59.67;;
60314;SDS011;46159;42.550;21.904;2024-01-06T01:05:10;108.13;;;68.43;;
60314;SDS011;46159;42.550;21.904;2024-01-06T01:07:36;151.43;;;91.78;;
60314;SDS011;46159;42.550;21.904;2024-01-06T01:10:02;104.50;;;66.95;;
60314;SDS011;46159;42.550;21.904;2024-01-06T01:12:29;114.53;;;73.30;;
60314;SDS011;46159;42.550;21.904;2024-01-06T01:14:55;90.95;;;56.78;;
60314;SDS011;46159;42.550;21.904;2024-01-06T01:17:22;76.18;;;52.63;;
60314;SDS011;46159;42.550;21.904;2024-01-06T01:19:48;83.45;;;51.35;;
60314;SDS011;46159;42.550;21.904;2024-01-06T01:22:14;65.43;;;42.28;;
60314;SDS011;46159;42.550;21.904;2024-01-06T01:24:40;76.78;;;47.92;;
60314;SDS011;46159;42.550;21.904;2024-01-06T01:27:07;57.55;;;31.55;;
60314;SDS011;46159;42.550;21.904;2024-01-06T01:29:33;75.68;;;48.88;;
60314;SDS011;46159;42.550;21.904;2024-01-06T01:31:59;74.57;;;45.35;;
60314;SDS011;46159;42.550;21.904;2024-01-06T01:34:25;74.70;;;48.45;;
60314;SDS011;46159;42.550;21.904;2024-01-06T01:36:51;87.20;;;58.40;;
60314;SDS011;46159;42.550;21.904;2024-01-06T01:39:17;150.98;;;98.43;;
60314;SDS011;46159;42.550;21.904;2024-01-06T01:41:43;166.88;;;107.88;;
60314;SDS011;46159;42.550;21.904;2024-01-06T01:44:09;96.18;;;61.22;;
60314;SDS011;46159;42.550;21.904;2024-01-06T01:46:35;84.78;;;54.85;;
60314;SDS011;46159;42.550;21.904;2024-01-06T01:49:03;90.07;;;58.15;;
60314;SDS011;46159;42.550;21.904;2024-01-06T01:51:29;95.00;;;55.58;;
60314;SDS011;46159;42.550;21.904;2024-01-06T01:53:56;93.93;;;57.65;;
60314;SDS011;46159;42.550;21.904;2024-01-06T01:56:24;74.68;;;46.78;;
60314;SDS011;46159;42.550;21.904;2024-01-06T01:58:50;61.50;;;40.47;;
60314;SDS011;46159;42.550;21.904;2024-01-06T02:01:17;59.13;;;36.55;;
60314;SDS011;46159;42.550;21.904;2024-01-06T02:03:43;63.78;;;38.53;;
60314;SDS011;46159;42.550;21.904;2024-01-06T02:06:09;65.45;;;39.38;;
60314;SDS011;46159;42.550;21.904;2024-01-06T02:08:35;60.20;;;34.28;;
60314;SDS011;46159;42.550;21.904;2024-01-06T02:11:01;59.80;;;33.85;;
60314;SDS011;46159;42.550;21.904;2024-01-06T02:13:32;56.67;;;32.50;;
60314;SDS011;46159;42.550;21.904;2024-01-06T02:15:59;47.55;;;28.65;;
60314;SDS011;46159;42.550;21.904;2024-01-06T02:18:25;51.42;;;27.38;;
60314;SDS011;46159;42.550;21.904;2024-01-06T02:20:52;43.83;;;27.85;;
60314;SDS011;46159;42.550;21.904;2024-01-06T02:23:20;63.17;;;38.38;;
60314;SDS011;46159;42.550;21.904;2024-01-06T02:25:46;56.17;;;33.38;;
60314;SDS011;46159;42.550;21.904;2024-01-06T02:28:12;57.67;;;32.63;;
60314;SDS011;46159;42.550;21.904;2024-01-06T02:30:38;62.10;;;34.67;;
60314;SDS011;46159;42.550;21.904;2024-01-06T02:33:04;68.78;;;36.00;;
60314;SDS011;46159;42.550;21.904;2024-01-06T02:35:30;65.07;;;39.08;;
60314;SDS011;46159;42.550;21.904;2024-01-06T02:37:56;82.88;;;48.55;;
60314;SDS011;46159;42.550;21.904;2024-01-06T02:40:22;65.15;;;40.28;;
60314;SDS011;46159;42.550;21.904;2024-01-06T02:42:48;55.30;;;34.22;;
60314;SDS011;46159;42.550;21.904;2024-01-06T02:45:14;35.42;;;21.45;;
60314;SDS011;46159;42.550;21.904;2024-01-06T02:47:40;51.13;;;31.65;;
60314;SDS011;46159;42.550;21.904;2024-01-06T02:50:06;44.28;;;28.33;;
60314;SDS011;46159;42.550;21.904;2024-01-06T02:52:33;55.42;;;37.38;;
60314;SDS011;46159;42.550;21.904;2024-01-06T02:54:59;52.70;;;32.58;;
60314;SDS011;46159;42.550;21.904;2024-01-06T02:57:26;48.80;;;31.50;;
60314;SDS011;46159;42.550;21.904;2024-01-06T02:59:52;61.60;;;37.40;;
60314;SDS011;46159;42.550;21.904;2024-01-06T03:02:18;97.13;;;59.67;;
60314;SDS011;46159;42.550;21.904;2024-01-06T03:04:44;71.22;;;44.25;;
60314;SDS011;46159;42.550;21.904;2024-01-06T03:07:11;75.25;;;49.33;;
60314;SDS011;46159;42.550;21.904;2024-01-06T03:09:37;92.63;;;55.72;;
60314;SDS011;46159;42.550;21.904;2024-01-06T03:12:04;99.63;;;59.40;;
60314;SDS011;46159;42.550;21.904;2024-01-06T03:14:31;109.38;;;63.15;;
60314;SDS011;46159;42.550;21.904;2024-01-06T03:16:57;89.53;;;51.03;;
60314;SDS011;46159;42.550;21.904;2024-01-06T03:19:23;56.95;;;33.60;;
60314;SDS011;46159;42.550;21.904;2024-01-06T03:21:52;47.05;;;27.02;;
60314;SDS011;46159;42.550;21.904;2024-01-06T03:24:18;43.60;;;26.95;;
60314;SDS011;46159;42.550;21.904;2024-01-06T03:26:44;56.95;;;34.05;;
60314;SDS011;46159;42.550;21.904;2024-01-06T03:29:10;58.30;;;34.65;;
60314;SDS011;46159;42.550;21.904;2024-01-06T03:31:36;51.45;;;31.95;;
60314;SDS011;46159;42.550;21.904;2024-01-06T03:34:03;49.88;;;32.10;;
60314;SDS011;46159;42.550;21.904;2024-01-06T03:36:29;51.72;;;31.90;;
60314;SDS011;46159;42.550;21.904;2024-01-06T03:38:55;49.08;;;31.33;;
60314;SDS011;46159;42.550;21.904;2024-01-06T03:41:21;44.25;;;27.02;;
60314;SDS011;46159;42.550;21.904;2024-01-06T03:43:47;46.53;;;28.88;;
60314;SDS011;46159;42.550;21.904;2024-01-06T03:46:13;53.58;;;32.30;;
60314;SDS011;46159;42.550;21.904;2024-01-06T03:48:39;61.22;;;36.75;;
60314;SDS011;46159;42.550;21.904;2024-01-06T03:51:05;81.93;;;47.53;;
60314;SDS011;46159;42.550;21.904;2024-01-06T03:53:32;77.18;;;46.85;;
60314;SDS011;46159;42.550;21.904;2024-01-06T03:55:58;78.35;;;46.00;;
60314;SDS011;46159;42.550;21.904;2024-01-06T03:58:24;72.00;;;42.03;;
60314;SDS011;46159;42.550;21.904;2024-01-06T04:00:50;59.58;;;36.50;;
60314;SDS011;46159;42.550;21.904;2024-01-06T04:03:16;59.40;;;35.10;;
60314;SDS011;46159;42.550;21.904;2024-01-06T04:05:42;56.92;;;35.65;;
60314;SDS011;46159;42.550;21.904;2024-01-06T04:08:08;50.67;;;31.20;;
60314;SDS011;46159;42.550;21.904;2024-01-06T04:10:34;53.05;;;31.30;;
60314;SDS011;46159;42.550;21.904;2024-01-06T04:13:00;37.88;;;24.63;;
60314;SDS011;46159;42.550;21.904;2024-01-06T04:15:27;42.95;;;26.05;;
60314;SDS011;46159;42.550;21.904;2024-01-06T04:17:54;37.42;;;25.05;;
60314;SDS011;46159;42.550;21.904;2024-01-06T04:20:20;41.25;;;22.83;;
60314;SDS011;46159;42.550;21.904;2024-01-06T04:22:46;35.42;;;23.30;;
60314;SDS011;46159;42.550;21.904;2024-01-06T04:25:12;37.35;;;22.02;;
60314;SDS011;46159;42.550;21.904;2024-01-06T04:27:38;30.50;;;18.25;;
60314;SDS011;46159;42.550;21.904;2024-01-06T04:30:04;34.78;;;22.20;;
60314;SDS011;46159;42.550;21.904;2024-01-06T04:32:31;33.40;;;21.13;;
60314;SDS011;46159;42.550;21.904;2024-01-06T04:34:57;29.70;;;19.30;;
60314;SDS011;46159;42.550;21.904;2024-01-06T04:37:23;29.48;;;17.75;;
60314;SDS011;46159;42.550;21.904;2024-01-06T04:39:49;29.30;;;18.20;;
60314;SDS011;46159;42.550;21.904;2024-01-06T04:42:15;29.02;;;18.63;;
60314;SDS011;46159;42.550;21.904;2024-01-06T04:44:41;29.40;;;18.50;;
60314;SDS011;46159;42.550;21.904;2024-01-06T04:47:07;32.67;;;18.67;;
60314;SDS011;46159;42.550;21.904;2024-01-06T04:49:33;31.77;;;18.65;;
60314;SDS011;46159;42.550;21.904;2024-01-06T04:51:59;28.17;;;18.02;;
60314;SDS011;46159;42.550;21.904;2024-01-06T04:54:25;32.17;;;17.98;;
60314;SDS011;46159;42.550;21.904;2024-01-06T04:56:51;31.88;;;21.10;;
60314;SDS011;46159;42.550;21.904;2024-01-06T04:59:17;34.75;;;22.08;;
60314;SDS011;46159;42.550;21.904;2024-01-06T05:01:43;34.35;;;23.42;;
60314;SDS011;46159;42.550;21.904;2024-01-06T05:04:09;34.58;;;22.15;;
60314;SDS011;46159;42.550;21.904;2024-01-06T05:06:36;33.30;;;21.48;;
60314;SDS011;46159;42.550;21.904;2024-01-06T05:09:02;33.40;;;22.10;;
60314;SDS011;46159;42.550;21.904;2024-01-06T05:11:28;41.65;;;24.10;;
60314;SDS011;46159;42.550;21.904;2024-01-06T05:13:54;46.58;;;27.90;;
60314;SDS011;46159;42.550;21.904;2024-01-06T05:16:20;48.85;;;27.58;;
60314;SDS011;46159;42.550;21.904;2024-01-06T05:18:46;46.25;;;28.90;;
60314;SDS011;46159;42.550;21.904;2024-01-06T05:21:13;50.10;;;29.85;;
60314;SDS011;46159;42.550;21.904;2024-01-06T05:23:39;53.03;;;32.15;;
60314;SDS011;46159;42.550;21.904;2024-01-06T05:26:05;51.40;;;30.77;;
60314;SDS011;46159;42.550;21.904;2024-01-06T05:28:31;56.25;;;32.95;;
60314;SDS011;46159;42.550;21.904;2024-01-06T05:30:57;57.30;;;36.17;;
60314;SDS011;46159;42.550;21.904;2024-01-06T05:33:23;64.10;;;39.13;;
60314;SDS011;46159;42.550;21.904;2024-01-06T05:35:49;64.45;;;39.10;;
60314;SDS011;46159;42.550;21.904;2024-01-06T05:38:15;81.28;;;53.38;;
60314;SDS011;46159;42.550;21.904;2024-01-06T05:40:42;85.60;;;55.15;;
60314;SDS011;46159;42.550;21.904;2024-01-06T05:43:08;50.67;;;33.28;;
60314;SDS011;46159;42.550;21.904;2024-01-06T05:45:34;70.47;;;40.40;;
60314;SDS011;46159;42.550;21.904;2024-01-06T05:48:02;53.92;;;35.80;;
60314;SDS011;46159;42.550;21.904;2024-01-06T05:50:28;78.95;;;49.80;;
60314;SDS011;46159;42.550;21.904;2024-01-06T05:52:54;66.45;;;44.63;;
60314;SDS011;46159;42.550;21.904;2024-01-06T05:55:20;77.32;;;45.58;;
60314;SDS011;46159;42.550;21.904;2024-01-06T05:57:47;59.35;;;38.85;;
60314;SDS011;46159;42.550;21.904;2024-01-06T06:00:13;91.40;;;59.22;;
60314;SDS011;46159;42.550;21.904;2024-01-06T06:02:39;79.65;;;51.30;;
60314;SDS011;46159;42.550;21.904;2024-01-06T06:05:06;78.45;;;49.03;;
60314;SDS011;46159;42.550;21.904;2024-01-06T06:07:32;67.70;;;43.30;;
60314;SDS011;46159;42.550;21.904;2024-01-06T06:10:04;53.75;;;33.78;;
60314;SDS011;46159;42.550;21.904;2024-01-06T06:12:31;50.28;;;32.78;;
60314;SDS011;46159;42.550;21.904;2024-01-06T06:14:57;60.80;;;41.17;;
60314;SDS011;46159;42.550;21.904;2024-01-06T06:17:23;69.43;;;41.95;;
60314;SDS011;46159;42.550;21.904;2024-01-06T06:19:50;60.53;;;37.88;;
60314;SDS011;46159;42.550;21.904;2024-01-06T06:22:16;56.95;;;36.05;;
60314;SDS011;46159;42.550;21.904;2024-01-06T06:24:43;55.88;;;35.95;;
60314;SDS011;46159;42.550;21.904;2024-01-06T06:27:09;47.47;;;32.08;;
60314;SDS011;46159;42.550;21.904;2024-01-06T06:29:35;42.10;;;28.55;;
60314;SDS011;46159;42.550;21.904;2024-01-06T06:32:01;46.20;;;26.83;;
60314;SDS011;46159;42.550;21.904;2024-01-06T06:34:27;52.63;;;31.77;;
60314;SDS011;46159;42.550;21.904;2024-01-06T06:36:53;54.95;;;34.97;;
60314;SDS011;46159;42.550;21.904;2024-01-06T06:39:19;52.00;;;32.90;;
60314;SDS011;46159;42.550;21.904;2024-01-06T06:41:45;57.75;;;34.17;;
60314;SDS011;46159;42.550;21.904;2024-01-06T06:44:11;63.70;;;36.55;;
60314;SDS011;46159;42.550;21.904;2024-01-06T06:46:37;64.57;;;38.67;;
60314;SDS011;46159;42.550;21.904;2024-01-06T06:49:03;69.78;;;44.45;;
60314;SDS011;46159;42.550;21.904;2024-01-06T06:51:30;95.88;;;60.50;;
60314;SDS011;46159;42.550;21.904;2024-01-06T06:53:56;83.45;;;51.25;;
60314;SDS011;46159;42.550;21.904;2024-01-06T06:56:22;101.90;;;64.32;;
60314;SDS011;46159;42.550;21.904;2024-01-06T06:58:48;89.28;;;57.53;;
60314;SDS011;46159;42.550;21.904;2024-01-06T07:01:14;133.82;;;83.93;;
60314;SDS011;46159;42.550;21.904;2024-01-06T07:03:41;132.40;;;83.82;;
60314;SDS011;46159;42.550;21.904;2024-01-06T07:06:07;156.88;;;95.80;;
60314;SDS011;46159;42.550;21.904;2024-01-06T07:08:33;224.93;;;131.30;;
60314;SDS011;46159;42.550;21.904;2024-01-06T07:10:59;251.10;;;157.82;;
60314;SDS011;46159;42.550;21.904;2024-01-06T07:13:25;229.98;;;141.75;;
60314;SDS011;46159;42.550;21.904;2024-01-06T07:15:52;192.35;;;121.75;;
60314;SDS011;46159;42.550;21.904;2024-01-06T07:18:18;191.77;;;120.82;;
60314;SDS011;46159;42.550;21.904;2024-01-06T07:20:48;190.05;;;123.75;;
60314;SDS011;46159;42.550;21.904;2024-01-06T07:23:14;229.05;;;145.45;;
60314;SDS011;46159;42.550;21.904;2024-01-06T07:25:40;227.15;;;160.93;;
60314;SDS011;46159;42.550;21.904;2024-01-06T07:28:06;173.05;;;120.40;;
60314;SDS011;46159;42.550;21.904;2024-01-06T07:30:33;195.80;;;133.80;;
60314;SDS011;46159;42.550;21.904;2024-01-06T07:32:59;78.20;;;51.95;;
60314;SDS011;46159;42.550;21.904;2024-01-06T07:35:25;53.35;;;37.17;;
60314;SDS011;46159;42.550;21.904;2024-01-06T07:37:53;112.45;;;70.30;;
60314;SDS011;46159;42.550;21.904;2024-01-06T07:40:19;175.15;;;125.72;;
60314;SDS011;46159;42.550;21.904;2024-01-06T07:42:45;173.23;;;124.32;;
60314;SDS011;46159;42.550;21.904;2024-01-06T07:45:11;180.88;;;130.30;;
60314;SDS011;46159;42.550;21.904;2024-01-06T07:47:38;181.95;;;124.05;;
60314;SDS011;46159;42.550;21.904;2024-01-06T07:50:04;99.63;;;70.35;;
60314;SDS011;46159;42.550;21.904;2024-01-06T07:52:30;134.15;;;91.95;;
60314;SDS011;46159;42.550;21.904;2024-01-06T07:54:57;136.13;;;94.85;;
60314;SDS011;46159;42.550;21.904;2024-01-06T07:57:24;154.07;;;111.00;;
60314;SDS011;46159;42.550;21.904;2024-01-06T07:59:50;187.38;;;137.60;;
60314;SDS011;46159;42.550;21.904;2024-01-06T08:02:16;168.70;;;124.28;;
60314;SDS011;46159;42.550;21.904;2024-01-06T08:04:42;191.00;;;133.13;;
60314;SDS011;46159;42.550;21.904;2024-01-06T08:07:08;201.88;;;142.75;;
60314;SDS011;46159;42.550;21.904;2024-01-06T08:09:34;222.02;;;158.27;;
60314;SDS011;46159;42.550;21.904;2024-01-06T08:12:01;194.95;;;139.93;;
60314;SDS011;46159;42.550;21.904;2024-01-06T08:14:28;125.53;;;91.35;;
60314;SDS011;46159;42.550;21.904;2024-01-06T08:16:54;163.65;;;116.30;;
60314;SDS011;46159;42.550;21.904;2024-01-06T08:19:20;207.88;;;136.15;;
60314;SDS011;46159;42.550;21.904;2024-01-06T08:21:46;190.10;;;125.72;;
60314;SDS011;46159;42.550;21.904;2024-01-06T08:24:13;156.68;;;103.60;;
60314;SDS011;46159;42.550;21.904;2024-01-06T08:26:39;179.50;;;117.47;;
60314;SDS011;46159;42.550;21.904;2024-01-06T08:29:05;152.90;;;103.20;;
60314;SDS011;46159;42.550;21.904;2024-01-06T08:31:31;48.42;;;32.88;;
60314;SDS011;46159;42.550;21.904;2024-01-06T08:33:58;58.90;;;34.35;;
60314;SDS011;46159;42.550;21.904;2024-01-06T08:36:24;40.17;;;27.60;;
60314;SDS011;46159;42.550;21.904;2024-01-06T08:38:50;32.65;;;18.75;;
60314;SDS011;46159;42.550;21.904;2024-01-06T08:41:16;37.70;;;24.60;;
60314;SDS011;46159;42.550;21.904;2024-01-06T08:43:42;49.20;;;34.72;;
60314;SDS011;46159;42.550;21.904;2024-01-06T08:46:09;54.10;;;40.05;;
60314;SDS011;46159;42.550;21.904;2024-01-06T08:48:35;59.30;;;42.75;;
60314;SDS011;46159;42.550;21.904;2024-01-06T08:51:01;61.75;;;36.00;;
60314;SDS011;46159;42.550;21.904;2024-01-06T08:53:27;55.53;;;36.28;;
60314;SDS011;46159;42.550;21.904;2024-01-06T08:55:53;34.88;;;25.35;;
60314;SDS011;46159;42.550;21.904;2024-01-06T08:58:19;33.65;;;22.15;;
60314;SDS011;46159;42.550;21.904;2024-01-06T09:00:45;42.95;;;25.70;;
60314;SDS011;46159;42.550;21.904;2024-01-06T09:03:11;26.27;;;15.80;;
60314;SDS011;46159;42.550;21.904;2024-01-06T09:05:37;24.67;;;12.38;;
60314;SDS011;46159;42.550;21.904;2024-01-06T09:08:04;36.33;;;20.10;;
60314;SDS011;46159;42.550;21.904;2024-01-06T09:10:30;37.28;;;19.00;;
60314;SDS011;46159;42.550;21.904;2024-01-06T09:12:56;46.38;;;20.45;;
60314;SDS011;46159;42.550;21.904;2024-01-06T09:15:22;48.58;;;33.67;;
60314;SDS011;46159;42.550;21.904;2024-01-06T09:17:49;27.17;;;15.35;;
60314;SDS011;46159;42.550;21.904;2024-01-06T09:20:15;37.55;;;22.27;;
60314;SDS011;46159;42.550;21.904;2024-01-06T09:22:42;41.75;;;27.50;;
60314;SDS011;46159;42.550;21.904;2024-01-06T09:25:08;44.72;;;26.80;;
60314;SDS011;46159;42.550;21.904;2024-01-06T09:27:35;40.33;;;27.50;;
60314;SDS011;46159;42.550;21.904;2024-01-06T09:30:01;43.10;;;27.52;;
60314;SDS011;46159;42.550;21.904;2024-01-06T09:32:27;49.70;;;33.50;;
60314;SDS011;46159;42.550;21.904;2024-01-06T09:34:53;43.00;;;26.50;;
60314;SDS011;46159;42.550;21.904;2024-01-06T09:37:19;41.10;;;23.75;;
60314;SDS011;46159;42.550;21.904;2024-01-06T09:39:45;36.25;;;21.75;;
60314;SDS011;46159;42.550;21.904;2024-01-06T09:42:11;31.83;;;21.05;;
60314;SDS011;46159;42.550;21.904;2024-01-06T09:44:40;27.25;;;18.30;;
60314;SDS011;46159;42.550;21.904;2024-01-06T09:47:06;33.80;;;23.05;;
60314;SDS011;46159;42.550;21.904;2024-01-06T09:49:34;27.23;;;16.45;;
60314;SDS011;46159;42.550;21.904;2024-01-06T09:52:02;32.45;;;22.65;;
60314;SDS011;46159;42.550;21.904;2024-01-06T09:54:30;30.88;;;19.70;;
60314;SDS011;46159;42.550;21.904;2024-01-06T09:57:00;32.20;;;21.98;;
60314;SDS011;46159;42.550;21.904;2024-01-06T09:59:29;52.90;;;31.10;;
60314;SDS011;46159;42.550;21.904;2024-01-06T10:01:59;48.78;;;31.55;;
60314;SDS011;46159;42.550;21.904;2024-01-06T10:04:26;49.78;;;30.60;;
60314;SDS011;46159;42.550;21.904;2024-01-06T10:06:52;39.67;;;27.35;;
60314;SDS011;46159;42.550;21.904;2024-01-06T10:09:25;46.83;;;27.52;;
60314;SDS011;46159;42.550;21.904;2024-01-06T10:11:54;37.83;;;25.60;;
60314;SDS011;46159;42.550;21.904;2024-01-06T10:14:20;38.38;;;25.88;;
60314;SDS011;46159;42.550;21.904;2024-01-06T10:16:46;45.42;;;28.67;;
60314;SDS011;46159;42.550;21.904;2024-01-06T10:19:14;38.65;;;26.38;;
60314;SDS011;46159;42.550;21.904;2024-01-06T10:21:40;32.00;;;22.27;;
60314;SDS011;46159;42.550;21.904;2024-01-06T10:24:07;40.15;;;27.10;;
60314;SDS011;46159;42.550;21.904;2024-01-06T10:26:34;59.08;;;34.60;;
60314;SDS011;46159;42.550;21.904;2024-01-06T10:29:00;42.97;;;25.65;;
60314;SDS011;46159;42.550;21.904;2024-01-06T10:31:29;51.28;;;32.90;;
60314;SDS011;46159;42.550;21.904;2024-01-06T10:33:55;37.60;;;26.98;;
60314;SDS011;46159;42.550;21.904;2024-01-06T10:36:23;45.03;;;26.55;;
60314;SDS011;46159;42.550;21.904;2024-01-06T10:38:49;49.85;;;29.58;;
60314;SDS011;46159;42.550;21.904;2024-01-06T10:41:16;41.35;;;25.58;;
60314;SDS011;46159;42.550;21.904;2024-01-06T10:43:42;38.47;;;23.23;;
60314;SDS011;46159;42.550;21.904;2024-01-06T10:46:09;44.25;;;27.73;;
60314;SDS011;46159;42.550;21.904;2024-01-06T10:48:36;36.72;;;22.00;;
60314;SDS011;46159;42.550;21.904;2024-01-06T10:51:09;41.35;;;28.65;;
60314;SDS011;46159;42.550;21.904;2024-01-06T10:53:36;45.00;;;31.50;;
60314;SDS011;46159;42.550;21.904;2024-01-06T10:56:05;44.38;;;27.45;;
60314;SDS011;46159;42.550;21.904;2024-01-06T10:58:39;44.30;;;30.27;;
60314;SDS011;46159;42.550;21.904;2024-01-06T11:01:09;63.00;;;42.28;;
60314;SDS011;46159;42.550;21.904;2024-01-06T11:03:38;41.10;;;27.00;;
60314;SDS011;46159;42.550;21.904;2024-01-06T11:06:08;35.67;;;19.98;;
60314;SDS011;46159;42.550;21.904;2024-01-06T11:08:37;46.70;;;27.45;;
60314;SDS011;46159;42.550;21.904;2024-01-06T11:11:14;33.25;;;18.90;;
60314;SDS011;46159;42.550;21.904;2024-01-06T11:13:40;34.42;;;21.45;;
60314;SDS011;46159;42.550;21.904;2024-01-06T11:16:08;36.80;;;25.65;;
60314;SDS011;46159;42.550;21.904;2024-01-06T11:18:39;34.55;;;23.45;;
60314;SDS011;46159;42.550;21.904;2024-01-06T11:24:04;32.40;;;21.35;;
60314;SDS011;46159;42.550;21.904;2024-01-06T11:26:30;52.38;;;29.98;;
60314;SDS011;46159;42.550;21.904;2024-01-06T11:28:56;49.03;;;31.48;;
60314;SDS011;46159;42.550;21.904;2024-01-06T11:31:23;55.10;;;30.35;;
60314;SDS011;46159;42.550;21.904;2024-01-06T11:33:49;53.85;;;30.98;;
60314;SDS011;46159;42.550;21.904;2024-01-06T11:36:17;55.88;;;31.08;;
60314;SDS011;46159;42.550;21.904;2024-01-06T11:38:46;59.45;;;34.15;;
60314;SDS011;46159;42.550;21.904;2024-01-06T11:44:11;43.42;;;25.58;;
60314;SDS011;46159;42.550;21.904;2024-01-06T11:46:37;42.53;;;28.88;;
60314;SDS011;46159;42.550;21.904;2024-01-06T11:49:03;49.50;;;29.25;;
60314;SDS011;46159;42.550;21.904;2024-01-06T11:51:30;46.45;;;27.48;;
60314;SDS011;46159;42.550;21.904;2024-01-06T11:53:56;39.83;;;21.42;;
60314;SDS011;46159;42.550;21.904;2024-01-06T11:56:22;35.80;;;23.80;;
60314;SDS011;46159;42.550;21.904;2024-01-06T11:58:49;38.55;;;24.27;;
60314;SDS011;46159;42.550;21.904;2024-01-06T12:01:16;34.55;;;18.35;;
60314;SDS011;46159;42.550;21.904;2024-01-06T12:03:43;55.25;;;37.70;;
60314;SDS011;46159;42.550;21.904;2024-01-06T12:06:09;37.42;;;21.42;;
60314;SDS011;46159;42.550;21.904;2024-01-06T12:08:35;31.63;;;21.40;;
60314;SDS011;46159;42.550;21.904;2024-01-06T12:11:04;32.33;;;17.40;;
60314;SDS011;46159;42.550;21.904;2024-01-06T12:13:32;23.73;;;15.30;;
60314;SDS011;46159;42.550;21.904;2024-01-06T12:15:58;31.73;;;13.50;;
60314;SDS011;46159;42.550;21.904;2024-01-06T12:18:25;53.95;;;29.80;;
60314;SDS011;46159;42.550;21.904;2024-01-06T12:20:52;61.85;;;41.42;;
60314;SDS011;46159;42.550;21.904;2024-01-06T12:23:25;39.47;;;25.25;;
60314;SDS011;46159;42.550;21.904;2024-01-06T12:25:52;47.10;;;30.23;;
60314;SDS011;46159;42.550;21.904;2024-01-06T12:28:18;44.90;;;25.42;;
60314;SDS011;46159;42.550;21.904;2024-01-06T12:30:45;49.45;;;32.08;;
60314;SDS011;46159;42.550;21.904;2024-01-06T12:33:11;69.45;;;35.95;;
60314;SDS011;46159;42.550;21.904;2024-01-06T12:35:37;40.67;;;21.67;;
60314;SDS011;46159;42.550;21.904;2024-01-06T12:38:04;32.78;;;24.23;;
60314;SDS011;46159;42.550;21.904;2024-01-06T12:40:34;48.53;;;31.88;;
60314;SDS011;46159;42.550;21.904;2024-01-06T12:43:01;43.60;;;27.73;;
60314;SDS011;46159;42.550;21.904;2024-01-06T12:45:27;49.78;;;32.85;;
60314;SDS011;46159;42.550;21.904;2024-01-06T12:47:54;39.88;;;28.25;;
60314;SDS011;46159;42.550;21.904;2024-01-06T12:50:20;61.60;;;42.30;;
60314;SDS011;46159;42.550;21.904;2024-01-06T12:52:46;47.33;;;31.63;;
60314;SDS011;46159;42.550;21.904;2024-01-06T12:55:12;41.47;;;28.02;;
60314;SDS011;46159;42.550;21.904;2024-01-06T12:57:38;49.35;;;29.48;;
60314;SDS011;46159;42.550;21.904;2024-01-06T13:00:04;52.10;;;34.67;;
60314;SDS011;46159;42.550;21.904;2024-01-06T13:02:32;68.05;;;31.20;;
60314;SDS011;46159;42.550;21.904;2024-01-06T13:04:58;61.92;;;36.83;;
60314;SDS011;46159;42.550;21.904;2024-01-06T13:07:25;62.17;;;40.38;;
60314;SDS011;46159;42.550;21.904;2024-01-06T13:09:51;60.83;;;34.15;;
60314;SDS011;46159;42.550;21.904;2024-01-06T13:12:17;35.13;;;25.60;;
60314;SDS011;46159;42.550;21.904;2024-01-06T13:14:43;45.90;;;30.08;;
60314;SDS011;46159;42.550;21.904;2024-01-06T13:17:12;50.83;;;31.50;;
60314;SDS011;46159;42.550;21.904;2024-01-06T13:19:41;35.88;;;24.83;;
60314;SDS011;46159;42.550;21.904;2024-01-06T13:22:07;53.88;;;32.75;;
60314;SDS011;46159;42.550;21.904;2024-01-06T13:24:33;38.58;;;23.98;;
60314;SDS011;46159;42.550;21.904;2024-01-06T13:26:59;37.80;;;19.52;;
60314;SDS011;46159;42.550;21.904;2024-01-06T13:29:27;39.20;;;22.27;;
60314;SDS011;46159;42.550;21.904;2024-01-06T13:31:54;44.95;;;28.10;;
60314;SDS011;46159;42.550;21.904;2024-01-06T13:34:20;33.20;;;21.58;;
60314;SDS011;46159;42.550;21.904;2024-01-06T13:36:46;45.03;;;27.75;;
60314;SDS011;46159;42.550;21.904;2024-01-06T13:39:12;43.05;;;25.55;;
60314;SDS011;46159;42.550;21.904;2024-01-06T13:41:47;44.55;;;28.83;;
60314;SDS011;46159;42.550;21.904;2024-01-06T13:44:13;47.85;;;28.50;;
60314;SDS011;46159;42.550;21.904;2024-01-06T13:46:40;41.05;;;26.77;;
60314;SDS011;46159;42.550;21.904;2024-01-06T13:49:13;36.65;;;23.25;;
60314;SDS011;46159;42.550;21.904;2024-01-06T13:51:39;51.78;;;34.65;;
60314;SDS011;46159;42.550;21.904;2024-01-06T13:54:05;31.05;;;19.27;;
60314;SDS011;46159;42.550;21.904;2024-01-06T13:56:31;51.85;;;30.38;;
60314;SDS011;46159;42.550;21.904;2024-01-06T13:58:58;54.13;;;32.63;;
60314;SDS011;46159;42.550;21.904;2024-01-06T14:01:24;61.05;;;36.63;;
60314;SDS011;46159;42.550;21.904;2024-01-06T14:03:50;72.88;;;45.92;;
60314;SDS011;46159;42.550;21.904;2024-01-06T14:06:22;89.93;;;52.28;;
60314;SDS011;46159;42.550;21.904;2024-01-06T14:08:49;88.32;;;53.80;;